Flight Track Log - Related Links

Times and Time Zones

All times are in EDT time to prevent confusion due to time zone crossing. See the FDX1259 flight status page for this flight to view local times or setup timezone preferences in your user account.

Time Position Orientation Groundspeed Altitude Reporting Facility
EDT Latitude Longitude Course Direction KTS MPH feet Rate Location/Type
Wed 11:09:16 PM 33.6753 -101.8292 17° North 142 163 4,000  Level Fort Worth Center
Wed 11:10:23 PM 33.7278 -101.8103 17° North 224 258 6,300 2,379 Climbing Fort Worth Center
Wed 11:11:12 PM 33.7356 -101.7392 82° East 273 314 8,600 2,754 Climbing Fort Worth Center
Wed 11:11:24 PM 33.7350 -101.7175 92° East 301 346 9,100 2,164 Climbing Fort Worth Center
Wed 11:12:13 PM 33.7372 -101.6358 88° East 312 359 10,800 2,378 Climbing Fort Worth Center
Wed 11:13:15 PM 33.7422 -101.4983 87° East 383 441 13,500 2,732 Climbing Fort Worth Center
Wed 11:14:16 PM 33.7475 -101.3628 87° East 403 464 16,400 2,732 Climbing Fort Worth Center
Wed 11:15:18 PM 33.7528 -101.2222 87° East 420 483 19,100 2,488 Climbing Fort Worth Center
Wed 11:16:19 PM 33.7575 -101.0650 88° East 436 502 21,500 2,195 Climbing Fort Worth Center
Wed 11:17:21 PM 33.7636 -100.9133 87° East 455 524 23,600 1,951 Climbing Fort Worth Center
Wed 11:18:22 PM 33.7664 -100.7603 89° East 464 534 25,500 1,659 Climbing Fort Worth Center
Wed 11:19:24 PM 33.7717 -100.5978 88° East 478 550 27,000 1,610 Climbing Fort Worth Center
Wed 11:20:25 PM 33.7767 -100.4311 88° East 488 562 28,800 1,770 Climbing Fort Worth Center
Wed 11:21:26 PM 33.7800 -100.2597 89° East 502 578 30,600 1,073 Climbing Fort Worth Center
Wed 11:22:28 PM 33.7750 -100.0886 92° East 506 582 31,000 195 Climbing Fort Worth Center
Wed 11:23:29 PM 33.7561 -99.9219 98° East 510 587 31,000  Level Fort Worth Center
Wed 11:24:31 PM 33.7092 -99.7581 109° East 517 595 31,000  Level Fort Worth Center
Wed 11:25:32 PM 33.6544 -99.5975 112° Southeast 518 596 31,000 788 Level Fort Worth Center
Wed 11:32:08 PM 33.3427 -98.6064 92° East 467 537 37,000 841 Climbing FlightAware ADS-B
Wed 11:32:40 PM 33.3310 -98.5036 98° East 493 567 37,000  Level FlightAware ADS-B
Wed 11:33:28 PM 33.3251 -98.4509 98° East 431 496 37,000  Level FlightAware ADS-B
Wed 11:34:10 PM 33.3105 -98.3197 98° East 380 437 37,000  Level FlightAware ADS-B
Wed 11:34:41 PM 33.2944 -98.1735 97° East 399 459 37,000  Level FlightAware ADS-B
Wed 11:35:12 PM 33.2834 -98.0760 98° East 336 387 37,000  Level FlightAware ADS-B
Wed 11:35:51 PM 33.2704 -97.9659 98° East 623 717 37,000  Level FlightAware ADS-B
Wed 11:36:21 PM 33.2604 -97.8798 98° East 578 665 37,000  Level FlightAware ADS-B
Wed 11:36:52 PM 33.2511 -97.8006 98° East 540 621 37,000  Level FlightAware ADS-B
Wed 11:37:31 PM 33.2372 -97.6896 99° East 527 606 37,000  Level FlightAware ADS-B
Wed 11:38:02 PM 33.2262 -97.6046 99° East 461 531 37,000  Level FlightAware ADS-B
Wed 11:38:42 PM 33.2115 -97.4949 99° East 509 586 37,000  Level FlightAware ADS-B
Wed 11:38:55 PM 33.2081 -97.4685 138° Southeast 503 579 37,000  Level FlightAware ADS-B
Wed 11:39:12 PM 33.2007 -97.4103 99° East 504 580 37,000  Level FlightAware ADS-B
Wed 11:39:37 PM 33.1897 -97.3243 99° East 469 540 37,000  Level FlightAware ADS-B
Wed 11:39:48 PM 33.1866 -97.3007 99° East 501 577 37,000  Level FlightAware ADS-B
Wed 11:40:00 PM 33.1844 -97.2841 99° East 342 394 37,000  Level FlightAware ADS-B
Wed 11:40:08 PM 33.1787 -97.2400 99° East 468 539 37,000  Level FlightAware ADS-B
Wed 11:40:31 PM 33.1734 -97.1985 98° East 500 575 37,000  Level FlightAware ADS-B
Wed 11:40:37 PM 33.1696 -97.1683 99° East 464 534 37,000  Level FlightAware ADS-B
Wed 11:40:52 PM 33.1662 -97.1420 279° West 588 677 37,000  Level FlightAware ADS-B
Wed 11:41:00 PM 33.1626 -97.1132 98° East 588 677 37,000  Level FlightAware ADS-B
Wed 11:41:08 PM 33.1572 -97.0719 99° East 487 560 37,000  Level FlightAware ADS-B
Wed 11:41:32 PM 33.1512 -97.0225 98° East 506 582 37,000  Level FlightAware ADS-B
Wed 11:42:07 PM 33.1382 -96.9083 98° East 492 566 37,000  Level FlightAware ADS-B
Wed 11:42:11 PM 33.1397 -96.9221 278° West 827 952 37,000  Level FlightAware ADS-B
Wed 11:42:21 PM 33.1365 -96.8944 98° East 827 952 37,000  Level FlightAware ADS-B
Wed 11:42:30 PM 33.1334 -96.8666 98° East 571 657 37,000  Level FlightAware ADS-B
Wed 11:42:37 PM 33.1305 -96.8385 98° East 517 595 37,000  Level FlightAware ADS-B
Wed 11:42:41 PM 33.1305 -96.8385 97° East 569 655 37,000  Level FlightAware ADS-B
Wed 11:43:07 PM 33.1214 -96.7419 96° East 517 595 37,000  Level FlightAware ADS-B
Wed 11:43:20 PM 33.1221 -96.7503 97° East 605 696 37,000  Level FlightAware ADS-B
Wed 11:43:38 PM 33.1133 -96.6562 96° East 485 558 37,000  Level FlightAware ADS-B
Wed 11:43:51 PM 33.1114 -96.6350 277° West 377 434 37,000  Level FlightAware ADS-B
Wed 11:44:02 PM 33.1087 -96.6069 97° East 510 587 37,000  Level FlightAware ADS-B
Wed 11:44:10 PM 33.1066 -96.5844 275° West 510 587 37,000  Level FlightAware ADS-B
Wed 11:44:19 PM 33.1042 -96.5592 96° East 469 540 37,000  Level FlightAware ADS-B
Wed 11:44:31 PM 33.1008 -96.5210 277° West 345 397 37,000  Level FlightAware ADS-B
Wed 11:44:37 PM 33.0977 -96.4888 96° East 506 582 37,000  Level FlightAware ADS-B
Wed 11:44:41 PM 33.0977 -96.4888 97° East 540 621 37,000  Level FlightAware ADS-B
Wed 11:44:53 PM 33.0938 -96.4438 360° North 543 625 37,000  Level FlightAware ADS-B
Wed 11:45:12 PM 33.0934 -96.4382 96° East 567 652 37,000  Level FlightAware ADS-B
Wed 11:45:30 PM 33.0972 -96.3616 84° East 522 601 37,000  Level FlightAware ADS-B
Wed 11:45:38 PM 33.1020 -96.3315 85° East 518 596 37,000  Level FlightAware ADS-B
Wed 11:46:02 PM 33.1137 -96.2711 77° East 697 802 37,000  Level FlightAware ADS-B
Wed 11:46:07 PM 33.1190 -96.2428 77° East 521 600 37,000  Level FlightAware ADS-B
Wed 11:46:37 PM 33.1343 -96.1609 77° East 521 600 37,000  Level FlightAware ADS-B
Wed 11:46:38 PM 33.1298 -96.1851 63° Northeast 644 741 37,000  Level FlightAware ADS-B
Wed 11:48:22 PM 33.1858 -95.8890 77° East 510 587 37,000  Level FlightAware ADS-B
Wed 11:48:28 PM 33.1907 -95.8621 360° North 510 587 37,000  Level FlightAware ADS-B
Wed 11:49:13 PM 33.2110 -95.7542 360° North 510 587 37,000  Level FlightAware ADS-B
Wed 11:49:52 PM 33.2330 -95.6372 77° East 607 699 37,000  Level FlightAware ADS-B
Wed 11:50:22 PM 33.2455 -95.5702 77° East 587 676 37,000  Level FlightAware ADS-B
Wed 11:50:51 PM 33.2484 -95.5541 360° North 587 676 37,000  Level FlightAware ADS-B
Wed 11:53:22 PM 33.3349 -95.0836 77° East 358 412 37,000  Level FlightAware ADS-B
Wed 11:55:23 PM 33.3938 -94.7561 78° East 540 621 37,000  Level FlightAware ADS-B
Wed 11:55:32 PM 33.3969 -94.7387 360° North 538 619 37,000  Level FlightAware ADS-B
Wed 11:56:08 PM 33.4163 -94.6306 78° East 498 573 37,000  Level FlightAware ADS-B
Wed 11:56:22 PM 33.4223 -94.5971 78° East 500 575 37,000  Level FlightAware ADS-B
Wed 11:56:38 PM 33.4300 -94.5526 78° East 497 572 37,000  Level FlightAware ADS-B
Wed 11:57:50 PM 33.4644 -94.3575 78° East 464 534 37,000  Level FlightAware ADS-B
Wed 11:58:20 PM 33.4784 -94.2773 78° East 506 582 37,000  Level FlightAware ADS-B
Wed 11:58:50 PM 33.4923 -94.1974 79° East 506 582 37,000  Level FlightAware ADS-B
Wed 11:59:22 PM 33.5061 -94.1189 78° East 478 550 37,000  Level FlightAware ADS-B
Wed 11:59:53 PM 33.5215 -94.0294 78° East 493 567 37,000  Level FlightAware ADS-B
Thu 12:00:43 AM 33.5440 -93.9026 78° East 489 563 37,000  Level FlightAware ADS-B
Thu 12:01:14 AM 33.5598 -93.8128 78° East 549 632 37,000  Level FlightAware ADS-B
Thu 12:01:44 AM 33.5734 -93.7347 78° East 516 594 37,000  Level FlightAware ADS-B
Thu 12:02:18 AM 33.5897 -93.6404 78° East 504 580 37,000  Level FlightAware ADS-B
Thu 12:02:49 AM 33.6037 -93.5594 79° East 481 554 37,000  Level FlightAware ADS-B
Thu 12:03:53 AM 33.6292 -93.4083 79° East 495 570 37,000  Level Memphis Center
Thu 12:04:54 AM 33.6564 -93.2458 79° East 495 570 37,000  Level Memphis Center
Thu 12:05:55 AM 33.6844 -93.0822 78° East 499 574 37,000  Level Memphis Center
Thu 12:06:55 AM 33.7106 -92.9228 79° East 494 568 37,000 -198 Level Memphis Center
Thu 12:07:56 AM 33.7356 -92.7739 79° East 465 535 36,600 -787 Descending Memphis Center
Thu 12:08:57 AM 33.7603 -92.6272 78° East 454 522 35,400 -1,328 Descending Memphis Center
Thu 12:09:58 AM 33.7839 -92.4825 79° East 448 516 33,900 -1,721 Descending Memphis Center
Thu 12:10:59 AM 33.8111 -92.3133 79° East 434 499 31,900 -1,770 Descending Memphis Center
Thu 12:12:00 AM 33.8331 -92.1789 79° East 419 482 30,300 -1,636 Descending Memphis Center
Thu 12:13:00 AM 33.8547 -92.0472 79° East 409 471 28,600 -1,636 Descending Memphis Center
Thu 12:14:01 AM 33.8747 -91.9131 80° East 406 467 27,000 -1,574 Descending Memphis Center
Thu 12:15:02 AM 33.9333 -91.7753 63° Northeast 454 522 25,400 -1,426 Descending Memphis Center
Thu 12:16:03 AM 33.9889 -91.6481 62° Northeast 473 544 24,100 -1,180 Descending Memphis Center
Thu 12:17:04 AM 34.0667 -91.4775 61° Northeast 483 556 23,000 -541 Descending Memphis Center
Thu 12:18:05 AM 34.1289 -91.3439 61° Northeast 468 539 23,000 -590 Level Memphis Center
Thu 12:19:06 AM 34.1897 -91.2131 61° Northeast 453 521 21,800 -1,686 Descending Memphis Center
Thu 12:20:06 AM 34.2653 -91.1028 50° Northeast 433 498 19,600 -2,182 Descending Memphis Center
Thu 12:21:07 AM 34.3417 -91.0017 48° Northeast 414 476 17,400 -2,164 Descending Memphis Center
Thu 12:22:08 AM 34.4142 -90.9006 49° Northeast 404 465 15,200 -2,115 Descending Memphis Center
Thu 12:23:09 AM 34.4831 -90.8031 49° Northeast 389 448 13,100 -1,721 Descending Memphis Center
Thu 12:24:10 AM 34.5450 -90.7092 51° Northeast 367 422 11,700 -1,240 Descending Memphis Center
Thu 12:25:10 AM 34.5961 -90.6225 54° Northeast 329 379 10,600 -1,041 Descending Memphis Center
Thu 12:26:11 AM 34.6444 -90.5447 53° Northeast 299 344 9,600 -1,131 Descending Memphis Center
Thu 12:27:12 AM 34.6658 -90.4572 73° East 279 321 8,300 -1,279 Descending Memphis Center
Thu 12:28:13 AM 34.6900 -90.3736 71° East 267 307 7,000 -1,140 Descending Memphis Center
Thu 12:29:13 AM 34.7119 -90.2903 72° East 264 304 6,000 -496 Descending Memphis Center
Thu 12:30:14 AM 34.7350 -90.2086 71° East 259 298 6,000  Level Memphis Center
Thu 12:31:15 AM 34.7575 -90.1267 71° East 259 298 6,000 -197 Level Memphis Center
Thu 12:32:16 AM 34.7800 -90.0431 72° East 258 297 5,600 -595 Descending Memphis Center
Thu 12:33:16 AM 34.8236 -89.9933 43° Northeast 230 265 4,800 -1,041 Descending Memphis Center
Thu 12:34:17 AM 34.8939 -89.9822 North 213 245 3,500 -1,279 Descending Memphis Center
Thu 12:35:18 AM 34.9453 -89.9847 358° North 196 226 2,200 -1,190 Descending Memphis Center
Thu 12:36:18 AM 34.9872 -89.9867 358° North 169 194 1,100 -843 Descending Memphis Center
Thu 12:37:19 AM 35.0133 -89.9864 360° North 142 163 500 -590 Descending Memphis Center

Login

Don't have an account? Register now (free) for customized features, flight alerts, and more!